sensor_id;sensor_type;location;lat;lon;timestamp;pressure;altitude;pressure_sealevel;temperature;humidity
59194;BME280;44967;48.598;15.650;2023-04-28T00:01:15;98513.69;;;5.22;69.32
59194;BME280;44967;48.598;15.650;2023-04-28T00:03:41;98511.06;;;5.22;69.30
59194;BME280;44967;48.598;15.650;2023-04-28T00:06:07;98510.31;;;5.05;69.89
59194;BME280;44967;48.598;15.650;2023-04-28T00:08:33;98512.09;;;4.97;70.05
59194;BME280;44967;48.598;15.650;2023-04-28T00:10:58;98507.72;;;4.99;70.45
59194;BME280;44967;48.598;15.650;2023-04-28T00:13:25;98503.34;;;4.98;70.65
59194;BME280;44967;48.598;15.650;2023-04-28T00:15:52;98502.47;;;5.05;70.11
59194;BME280;44967;48.598;15.650;2023-04-28T00:18:18;98510.34;;;4.96;69.83
59194;BME280;44967;48.598;15.650;2023-04-28T00:20:44;98507.78;;;4.87;69.79
59194;BME280;44967;48.598;15.650;2023-04-28T00:23:10;98507.81;;;4.76;70.32
59194;BME280;44967;48.598;15.650;2023-04-28T00:25:35;98503.44;;;4.80;70.63
59194;BME280;44967;48.598;15.650;2023-04-28T00:28:01;98501.75;;;4.69;70.96
59194;BME280;44967;48.598;15.650;2023-04-28T00:30:28;98510.47;;;4.70;70.84
59194;BME280;44967;48.598;15.650;2023-04-28T00:32:54;98510.47;;;4.71;70.78
59194;BME280;44967;48.598;15.650;2023-04-28T00:35:19;98501.75;;;4.74;70.31
59194;BME280;44967;48.598;15.650;2023-04-28T00:37:45;98515.69;;;4.67;70.66
59194;BME280;44967;48.598;15.650;2023-04-28T00:40:11;98507.03;;;4.56;70.93
59194;BME280;44967;48.598;15.650;2023-04-28T00:42:37;98509.63;;;4.60;71.08
59194;BME280;44967;48.598;15.650;2023-04-28T00:45:03;98507.03;;;4.57;71.14
59194;BME280;44967;48.598;15.650;2023-04-28T00:47:32;98513.16;;;4.44;71.14
59194;BME280;44967;48.598;15.650;2023-04-28T00:50:00;98513.19;;;4.40;71.76
59194;BME280;44967;48.598;15.650;2023-04-28T00:52:26;98504.44;;;4.44;71.49
59194;BME280;44967;48.598;15.650;2023-04-28T00:54:52;98503.59;;;4.42;71.03
59194;BME280;44967;48.598;15.650;2023-04-28T00:57:18;98507.09;;;4.33;70.85
59194;BME280;44967;48.598;15.650;2023-04-28T00:59:43;98500.97;;;4.31;71.48
59194;BME280;44967;48.598;15.650;2023-04-28T01:02:09;98501.03;;;4.16;71.45
59194;BME280;44967;48.598;15.650;2023-04-28T01:04:42;98501.91;;;4.22;71.43
59194;BME280;44967;48.598;15.650;2023-04-28T01:07:09;98492.31;;;4.17;71.51
59194;BME280;44967;48.598;15.650;2023-04-28T01:09:36;98501.94;;;4.10;71.57
59194;BME280;44967;48.598;15.650;2023-04-28T01:12:02;98489.72;;;3.96;72.46
59194;BME280;44967;48.598;15.650;2023-04-28T01:14:27;98494.09;;;4.03;72.33
59194;BME280;44967;48.598;15.650;2023-04-28T01:16:53;98484.50;;;3.96;72.15
59194;BME280;44967;48.598;15.650;2023-04-28T01:19:20;98490.63;;;3.86;73.19
59194;BME280;44967;48.598;15.650;2023-04-28T01:21:47;98483.66;;;3.82;72.95
59194;BME280;44967;48.598;15.650;2023-04-28T01:24:13;98481.88;;;3.88;72.33
59194;BME280;44967;48.598;15.650;2023-04-28T01:26:38;98480.16;;;3.76;73.90
59194;BME280;44967;48.598;15.650;2023-04-28T01:29:07;98489.72;;;3.84;73.28
59194;BME280;44967;48.598;15.650;2023-04-28T01:31:33;98488.00;;;3.83;73.58
59194;BME280;44967;48.598;15.650;2023-04-28T01:33:59;98482.75;;;3.79;73.42
59194;BME280;44967;48.598;15.650;2023-04-28T01:36:25;98490.59;;;3.79;73.28
59194;BME280;44967;48.598;15.650;2023-04-28T01:38:53;98477.53;;;3.76;72.60
59194;BME280;44967;48.598;15.650;2023-04-28T01:41:19;98471.44;;;3.68;73.00
59194;BME280;44967;48.598;15.650;2023-04-28T01:43:44;98474.06;;;3.65;73.30
59194;BME280;44967;48.598;15.650;2023-04-28T01:46:13;98479.31;;;3.65;73.77
59194;BME280;44967;48.598;15.650;2023-04-28T01:48:39;98476.69;;;3.73;72.94
59194;BME280;44967;48.598;15.650;2023-04-28T01:51:04;98468.84;;;3.65;73.10
59194;BME280;44967;48.598;15.650;2023-04-28T01:53:30;98483.66;;;3.69;72.91
59194;BME280;44967;48.598;15.650;2023-04-28T01:55:56;98478.44;;;3.66;72.71
59194;BME280;44967;48.598;15.650;2023-04-28T01:58:23;98477.56;;;3.69;72.40
59194;BME280;44967;48.598;15.650;2023-04-28T02:00:49;98478.44;;;3.63;73.13
59194;BME280;44967;48.598;15.650;2023-04-28T02:03:14;98480.19;;;3.55;73.67
59194;BME280;44967;48.598;15.650;2023-04-28T02:05:40;98468.84;;;3.61;73.11
59194;BME280;44967;48.598;15.650;2023-04-28T02:08:06;98473.19;;;3.65;72.71
59194;BME280;44967;48.598;15.650;2023-04-28T02:10:31;98469.72;;;3.70;72.76
59194;BME280;44967;48.598;15.650;2023-04-28T02:12:57;98475.81;;;3.56;73.03
59194;BME280;44967;48.598;15.650;2023-04-28T02:15:22;98481.03;;;3.48;73.64
59194;BME280;44967;48.598;15.650;2023-04-28T02:17:48;98481.91;;;3.41;73.08
59194;BME280;44967;48.598;15.650;2023-04-28T02:20:14;98476.69;;;3.41;73.04
59194;BME280;44967;48.598;15.650;2023-04-28T02:22:40;98472.31;;;3.34;73.67
59194;BME280;44967;48.598;15.650;2023-04-28T02:25:07;98470.56;;;3.33;74.16
59194;BME280;44967;48.598;15.650;2023-04-28T02:27:35;98461.91;;;3.36;73.62
59194;BME280;44967;48.598;15.650;2023-04-28T02:30:02;98459.25;;;3.25;74.10
59194;BME280;44967;48.598;15.650;2023-04-28T02:32:28;98450.56;;;3.18;73.69
59194;BME280;44967;48.598;15.650;2023-04-28T02:34:54;98457.50;;;3.24;73.68
59194;BME280;44967;48.598;15.650;2023-04-28T02:37:20;98460.13;;;3.25;73.64
59194;BME280;44967;48.598;15.650;2023-04-28T02:39:47;98467.09;;;3.11;74.22
59194;BME280;44967;48.598;15.650;2023-04-28T02:42:12;98456.63;;;3.10;74.42
59194;BME280;44967;48.598;15.650;2023-04-28T02:44:39;98454.03;;;3.19;74.17
59194;BME280;44967;48.598;15.650;2023-04-28T02:47:05;98450.53;;;3.06;74.06
59194;BME280;44967;48.598;15.650;2023-04-28T02:49:30;98454.00;;;3.01;75.06
59194;BME280;44967;48.598;15.650;2023-04-28T02:51:56;98450.53;;;3.11;74.96
59194;BME280;44967;48.598;15.650;2023-04-28T02:54:22;98448.78;;;3.10;74.84
59194;BME280;44967;48.598;15.650;2023-04-28T02:56:57;98449.66;;;3.07;74.80
59194;BME280;44967;48.598;15.650;2023-04-28T02:59:23;98446.19;;;3.13;74.44
59194;BME280;44967;48.598;15.650;2023-04-28T03:01:49;98450.53;;;3.17;74.48
59194;BME280;44967;48.598;15.650;2023-04-28T03:04:16;98445.31;;;3.11;74.03
59194;BME280;44967;48.598;15.650;2023-04-28T03:06:42;98447.94;;;3.14;74.36
59194;BME280;44967;48.598;15.650;2023-04-28T03:09:08;98456.63;;;2.99;73.87
59194;BME280;44967;48.598;15.650;2023-04-28T03:11:34;98454.00;;;2.92;74.11
59194;BME280;44967;48.598;15.650;2023-04-28T03:14:00;98455.75;;;2.96;74.18
59194;BME280;44967;48.598;15.650;2023-04-28T03:16:26;98451.38;;;2.90;74.91
59194;BME280;44967;48.598;15.650;2023-04-28T03:18:51;98453.97;;;2.90;75.20
59194;BME280;44967;48.598;15.650;2023-04-28T03:21:18;98452.22;;;2.81;75.36
59194;BME280;44967;48.598;15.650;2023-04-28T03:23:44;98457.44;;;2.75;75.48
59194;BME280;44967;48.598;15.650;2023-04-28T03:26:09;98454.81;;;2.77;74.63
59194;BME280;44967;48.598;15.650;2023-04-28T03:28:35;98451.28;;;2.69;75.39
59194;BME280;44967;48.598;15.650;2023-04-28T03:31:01;98456.56;;;2.72;74.85
59194;BME280;44967;48.598;15.650;2023-04-28T03:33:27;98456.53;;;2.73;75.02
59194;BME280;44967;48.598;15.650;2023-04-28T03:35:53;98449.53;;;2.62;76.02
59194;BME280;44967;48.598;15.650;2023-04-28T03:38:19;98447.84;;;2.73;75.71
59194;BME280;44967;48.598;15.650;2023-04-28T03:40:45;98457.44;;;2.81;75.08
59194;BME280;44967;48.598;15.650;2023-04-28T03:43:11;98452.22;;;2.75;75.63
59194;BME280;44967;48.598;15.650;2023-04-28T03:45:37;98452.22;;;2.83;74.26
59194;BME280;44967;48.598;15.650;2023-04-28T03:48:03;98467.00;;;2.75;75.42
59194;BME280;44967;48.598;15.650;2023-04-28T03:50:29;98459.19;;;2.76;75.17
59194;BME280;44967;48.598;15.650;2023-04-28T03:52:54;98461.78;;;2.76;75.72
59194;BME280;44967;48.598;15.650;2023-04-28T03:55:20;98458.31;;;2.79;75.02
59194;BME280;44967;48.598;15.650;2023-04-28T03:57:47;98456.56;;;2.75;75.05
59194;BME280;44967;48.598;15.650;2023-04-28T04:00:13;98462.66;;;2.75;76.12
59194;BME280;44967;48.598;15.650;2023-04-28T04:02:38;98453.97;;;2.89;74.81
59194;BME280;44967;48.598;15.650;2023-04-28T04:05:04;98449.63;;;2.97;74.81
59194;BME280;44967;48.598;15.650;2023-04-28T04:07:31;98455.75;;;2.96;75.01
59194;BME280;44967;48.598;15.650;2023-04-28T04:09:56;98451.38;;;3.01;75.62
59194;BME280;44967;48.598;15.650;2023-04-28T04:12:22;98447.06;;;3.15;74.87
59194;BME280;44967;48.598;15.650;2023-04-28T04:14:47;98447.91;;;3.09;74.22
59194;BME280;44967;48.598;15.650;2023-04-28T04:17:13;98450.53;;;3.21;74.57
59194;BME280;44967;48.598;15.650;2023-04-28T04:19:39;98445.31;;;3.29;74.06
59194;BME280;44967;48.598;15.650;2023-04-28T04:22:04;98454.03;;;3.37;74.01
59194;BME280;44967;48.598;15.650;2023-04-28T04:24:30;98441.84;;;3.36;73.86
59194;BME280;44967;48.598;15.650;2023-04-28T04:26:56;98437.50;;;3.46;73.79
59194;BME280;44967;48.598;15.650;2023-04-28T04:29:21;98440.13;;;3.59;73.89
59194;BME280;44967;48.598;15.650;2023-04-28T04:31:47;98430.53;;;3.64;73.14
59194;BME280;44967;48.598;15.650;2023-04-28T04:34:14;98439.22;;;3.65;73.56
59194;BME280;44967;48.598;15.650;2023-04-28T04:36:40;98439.25;;;3.53;73.54
59194;BME280;44967;48.598;15.650;2023-04-28T04:39:05;98434.88;;;3.62;74.22
59194;BME280;44967;48.598;15.650;2023-04-28T04:41:31;98437.47;;;3.71;73.11
59194;BME280;44967;48.598;15.650;2023-04-28T04:43:57;98439.22;;;3.69;73.36
59194;BME280;44967;48.598;15.650;2023-04-28T04:46:22;98434.00;;;3.69;73.17
59194;BME280;44967;48.598;15.650;2023-04-28T04:48:48;98434.03;;;3.62;74.25
59194;BME280;44967;48.598;15.650;2023-04-28T04:51:14;98427.88;;;3.84;73.93
59194;BME280;44967;48.598;15.650;2023-04-28T04:53:39;98424.41;;;3.87;73.61
59194;BME280;44967;48.598;15.650;2023-04-28T04:56:06;98422.59;;;3.99;74.03
59194;BME280;44967;48.598;15.650;2023-04-28T04:58:32;98415.63;;;4.07;73.55
59194;BME280;44967;48.598;15.650;2023-04-28T05:00:57;98422.56;;;4.22;73.46
59194;BME280;44967;48.598;15.650;2023-04-28T05:03:23;98419.88;;;4.37;73.05
59194;BME280;44967;48.598;15.650;2023-04-28T05:05:49;98423.31;;;4.53;72.84
59194;BME280;44967;48.598;15.650;2023-04-28T05:08:15;98415.41;;;4.63;73.10
59194;BME280;44967;48.598;15.650;2023-04-28T05:10:41;98420.59;;;4.66;72.69
59194;BME280;44967;48.598;15.650;2023-04-28T05:13:06;98415.25;;;4.86;72.47
59194;BME280;44967;48.598;15.650;2023-04-28T05:15:32;98421.28;;;4.99;72.24
59194;BME280;44967;48.598;15.650;2023-04-28T05:17:58;98422.97;;;5.13;72.50
59194;BME280;44967;48.598;15.650;2023-04-28T05:20:24;98423.72;;;5.26;72.24
59194;BME280;44967;48.598;15.650;2023-04-28T05:22:50;98421.00;;;5.40;71.98
59194;BME280;44967;48.598;15.650;2023-04-28T05:25:15;98423.50;;;5.55;71.84
59194;BME280;44967;48.598;15.650;2023-04-28T05:27:41;98416.44;;;5.64;72.91
59194;BME280;44967;48.598;15.650;2023-04-28T05:30:08;98416.28;;;5.78;71.43
59194;BME280;44967;48.598;15.650;2023-04-28T05:32:35;98414.47;;;5.89;70.35
59194;BME280;44967;48.598;15.650;2023-04-28T05:35:01;98424.88;;;6.00;69.78
59194;BME280;44967;48.598;15.650;2023-04-28T05:37:27;98421.22;;;6.14;69.58
59194;BME280;44967;48.598;15.650;2023-04-28T05:39:52;98423.66;;;6.31;69.03
59194;BME280;44967;48.598;15.650;2023-04-28T05:42:18;98414.75;;;6.41;67.44
59194;BME280;44967;48.598;15.650;2023-04-28T05:44:44;98421.56;;;6.57;65.80
59194;BME280;44967;48.598;15.650;2023-04-28T05:47:10;98424.84;;;6.75;65.20
59194;BME280;44967;48.598;15.650;2023-04-28T05:49:36;98423.72;;;6.92;64.90
59194;BME280;44967;48.598;15.650;2023-04-28T05:52:02;98423.53;;;7.06;65.40
59194;BME280;44967;48.598;15.650;2023-04-28T05:54:28;98421.50;;;7.25;65.31
59194;BME280;44967;48.598;15.650;2023-04-28T05:56:54;98427.31;;;7.43;64.21
59194;BME280;44967;48.598;15.650;2023-04-28T05:59:20;98424.44;;;7.58;63.74
59194;BME280;44967;48.598;15.650;2023-04-28T06:01:45;98417.63;;;7.48;59.16
59194;BME280;44967;48.598;15.650;2023-04-28T06:04:11;98413.03;;;7.59;59.04
59194;BME280;44967;48.598;15.650;2023-04-28T06:06:37;98410.19;;;7.73;57.76
59194;BME280;44967;48.598;15.650;2023-04-28T06:09:03;98407.31;;;7.87;57.58
59194;BME280;44967;48.598;15.650;2023-04-28T06:11:29;98405.47;;;7.92;57.46
59194;BME280;44967;48.598;15.650;2023-04-28T06:13:54;98407.94;;;8.01;57.45
59194;BME280;44967;48.598;15.650;2023-04-28T06:16:20;98401.53;;;8.14;58.26
59194;BME280;44967;48.598;15.650;2023-04-28T06:18:48;98405.84;;;8.18;57.18
59194;BME280;44967;48.598;15.650;2023-04-28T06:21:15;98406.91;;;8.10;58.04
59194;BME280;44967;48.598;15.650;2023-04-28T06:23:40;98405.31;;;8.01;57.35
59194;BME280;44967;48.598;15.650;2023-04-28T06:26:07;98405.44;;;7.93;58.47
59194;BME280;44967;48.598;15.650;2023-04-28T06:28:33;98397.50;;;7.95;58.69
59194;BME280;44967;48.598;15.650;2023-04-28T06:30:59;98397.41;;;8.01;58.16
59194;BME280;44967;48.598;15.650;2023-04-28T06:33:24;98396.41;;;8.06;57.58
59194;BME280;44967;48.598;15.650;2023-04-28T06:35:50;98410.28;;;8.16;57.50
59194;BME280;44967;48.598;15.650;2023-04-28T06:38:17;98406.31;;;7.94;57.77
59194;BME280;44967;48.598;15.650;2023-04-28T06:40:42;98404.44;;;7.99;57.75
59194;BME280;44967;48.598;15.650;2023-04-28T06:43:10;98405.06;;;8.13;57.41
59194;BME280;44967;48.598;15.650;2023-04-28T06:45:36;98400.19;;;8.39;57.54
59194;BME280;44967;48.598;15.650;2023-04-28T06:48:02;98401.13;;;8.37;56.58
59194;BME280;44967;48.598;15.650;2023-04-28T06:50:28;98409.69;;;8.46;57.70
59194;BME280;44967;48.598;15.650;2023-04-28T06:52:54;98410.78;;;8.36;56.71
59194;BME280;44967;48.598;15.650;2023-04-28T06:55:20;98406.56;;;8.26;57.21
59194;BME280;44967;48.598;15.650;2023-04-28T06:57:45;98406.63;;;8.23;58.01
59194;BME280;44967;48.598;15.650;2023-04-28T07:00:12;98401.28;;;8.26;58.19
59194;BME280;44967;48.598;15.650;2023-04-28T07:02:38;98388.53;;;8.52;57.77
59194;BME280;44967;48.598;15.650;2023-04-28T07:05:04;98397.84;;;8.69;56.93
59194;BME280;44967;48.598;15.650;2023-04-28T07:07:30;98388.91;;;8.76;57.18
59194;BME280;44967;48.598;15.650;2023-04-28T07:09:56;98375.41;;;8.89;57.68
59194;BME280;44967;48.598;15.650;2023-04-28T07:12:23;98376.88;;;9.01;56.76
59194;BME280;44967;48.598;15.650;2023-04-28T07:14:49;98366.84;;;8.80;56.32
59194;BME280;44967;48.598;15.650;2023-04-28T07:17:15;98370.78;;;8.99;57.52
59194;BME280;44967;48.598;15.650;2023-04-28T07:19:41;98365.31;;;9.08;57.37
59194;BME280;44967;48.598;15.650;2023-04-28T07:22:07;98358.84;;;9.21;56.85
59194;BME280;44967;48.598;15.650;2023-04-28T07:24:32;98360.19;;;9.37;57.18
59194;BME280;44967;48.598;15.650;2023-04-28T07:26:58;98359.09;;;9.48;54.79
59194;BME280;44967;48.598;15.650;2023-04-28T07:29:24;98364.06;;;9.60;54.83
59194;BME280;44967;48.598;15.650;2023-04-28T07:31:50;98368.66;;;9.84;54.47
59194;BME280;44967;48.598;15.650;2023-04-28T07:34:17;98363.16;;;9.93;54.45
59194;BME280;44967;48.598;15.650;2023-04-28T07:36:42;98371.72;;;10.03;53.32
59194;BME280;44967;48.598;15.650;2023-04-28T07:39:08;98364.56;;;10.06;54.55
59194;BME280;44967;48.598;15.650;2023-04-28T07:41:36;98369.91;;;10.35;53.34
59194;BME280;44967;48.598;15.650;2023-04-28T07:44:04;98363.00;;;10.62;53.47
59194;BME280;44967;48.598;15.650;2023-04-28T07:46:30;98366.13;;;10.75;51.90
59194;BME280;44967;48.598;15.650;2023-04-28T07:48:55;98359.94;;;10.76;52.44
59194;BME280;44967;48.598;15.650;2023-04-28T07:51:21;98354.78;;;10.71;52.38
59194;BME280;44967;48.598;15.650;2023-04-28T07:53:47;98365.38;;;10.99;52.33
59194;BME280;44967;48.598;15.650;2023-04-28T07:56:12;98363.31;;;11.37;51.08
59194;BME280;44967;48.598;15.650;2023-04-28T07:58:39;98360.47;;;11.69;50.68
59194;BME280;44967;48.598;15.650;2023-04-28T08:01:04;98357.84;;;11.67;50.53
59194;BME280;44967;48.598;15.650;2023-04-28T08:03:30;98346.31;;;11.96;49.91
59194;BME280;44967;48.598;15.650;2023-04-28T08:05:57;98349.63;;;12.01;49.21
59194;BME280;44967;48.598;15.650;2023-04-28T08:08:22;98341.81;;;12.46;48.57
59194;BME280;44967;48.598;15.650;2023-04-28T08:10:48;98331.38;;;13.11;47.75
59194;BME280;44967;48.598;15.650;2023-04-28T08:13:15;98320.09;;;13.90;45.66
59194;BME280;44967;48.598;15.650;2023-04-28T08:15:41;98310.75;;;14.21;44.25
59194;BME280;44967;48.598;15.650;2023-04-28T08:18:06;98311.69;;;14.58;43.64
59194;BME280;44967;48.598;15.650;2023-04-28T08:20:32;98311.81;;;14.37;42.45
59194;BME280;44967;48.598;15.650;2023-04-28T08:22:58;98312.06;;;14.31;44.25
59194;BME280;44967;48.598;15.650;2023-04-28T08:25:25;98306.97;;;14.65;43.35
59194;BME280;44967;48.598;15.650;2023-04-28T08:27:51;98320.25;;;14.84;44.20
59194;BME280;44967;48.598;15.650;2023-04-28T08:30:17;98319.22;;;15.24;42.34
59194;BME280;44967;48.598;15.650;2023-04-28T08:32:42;98319.38;;;15.02;42.46
59194;BME280;44967;48.598;15.650;2023-04-28T08:35:08;98325.13;;;14.74;43.51
59194;BME280;44967;48.598;15.650;2023-04-28T08:37:34;98315.97;;;14.81;42.76
59194;BME280;44967;48.598;15.650;2023-04-28T08:40:01;98312.88;;;15.26;42.35
59194;BME280;44967;48.598;15.650;2023-04-28T08:42:32;98311.72;;;15.13;41.73
59194;BME280;44967;48.598;15.650;2023-04-28T08:44:59;98314.72;;;14.10;44.13
59194;BME280;44967;48.598;15.650;2023-04-28T08:47:33;98307.81;;;14.06;44.54
59194;BME280;44967;48.598;15.650;2023-04-28T08:50:03;98288.94;;;14.33;44.70
59194;BME280;44967;48.598;15.650;2023-04-28T08:52:31;98288.56;;;14.79;43.52
59194;BME280;44967;48.598;15.650;2023-04-28T08:54:58;98294.13;;;14.36;44.24
59194;BME280;44967;48.598;15.650;2023-04-28T08:57:32;98294.28;;;14.70;44.95
59194;BME280;44967;48.598;15.650;2023-04-28T08:59:58;98279.34;;;14.86;43.98
59194;BME280;44967;48.598;15.650;2023-04-28T09:02:24;98283.00;;;14.84;42.89
59194;BME280;44967;48.598;15.650;2023-04-28T09:04:50;98272.44;;;15.01;43.14
59194;BME280;44967;48.598;15.650;2023-04-28T09:07:16;98267.78;;;15.23;42.63
59194;BME280;44967;48.598;15.650;2023-04-28T09:09:41;98260.41;;;15.45;42.71
59194;BME280;44967;48.598;15.650;2023-04-28T09:12:09;98266.63;;;15.46;43.69
59194;BME280;44967;48.598;15.650;2023-04-28T09:14:36;98272.53;;;15.17;42.47
59194;BME280;44967;48.598;15.650;2023-04-28T09:17:08;98259.06;;;15.20;43.17
59194;BME280;44967;48.598;15.650;2023-04-28T09:19:36;98258.38;;;15.33;43.04
59194;BME280;44967;48.598;15.650;2023-04-28T09:22:02;98247.63;;;15.18;43.33
59194;BME280;44967;48.598;15.650;2023-04-28T09:24:34;98243.75;;;15.93;43.07
59194;BME280;44967;48.598;15.650;2023-04-28T09:27:02;98233.81;;;16.13;42.13
59194;BME280;44967;48.598;15.650;2023-04-28T09:29:30;98235.66;;;16.76;41.13
59194;BME280;44967;48.598;15.650;2023-04-28T09:32:19;98234.81;;;17.37;39.49
59194;BME280;44967;48.598;15.650;2023-04-28T09:34:50;98232.78;;;17.11;38.45
59194;BME280;44967;48.598;15.650;2023-04-28T09:37:21;98238.81;;;17.30;39.38
59194;BME280;44967;48.598;15.650;2023-04-28T09:39:48;98237.00;;;17.15;40.12
59194;BME280;44967;48.598;15.650;2023-04-28T09:42:39;98232.47;;;16.85;39.30
59194;BME280;44967;48.598;15.650;2023-04-28T09:45:09;98220.59;;;16.60;39.02
59194;BME280;44967;48.598;15.650;2023-04-28T09:47:39;98218.69;;;17.38;38.29
59194;BME280;44967;48.598;15.650;2023-04-28T09:50:08;98218.72;;;17.82;36.78
59194;BME280;44967;48.598;15.650;2023-04-28T09:52:36;98215.09;;;17.98;37.82
59194;BME280;44967;48.598;15.650;2023-04-28T09:55:04;98216.47;;;18.61;36.33
59194;BME280;44967;48.598;15.650;2023-04-28T09:57:32;98219.13;;;18.61;36.79
59194;BME280;44967;48.598;15.650;2023-04-28T09:59:58;98215.25;;;18.94;36.60
59194;BME280;44967;48.598;15.650;2023-04-28T10:02:25;98223.91;;;18.42;36.74
59194;BME280;44967;48.598;15.650;2023-04-28T10:04:51;98206.84;;;18.86;36.65
59194;BME280;44967;48.598;15.650;2023-04-28T10:07:18;98203.91;;;19.56;35.41
59194;BME280;44967;48.598;15.650;2023-04-28T10:09:46;98197.59;;;20.08;34.93
59194;BME280;44967;48.598;15.650;2023-04-28T10:12:22;98203.75;;;20.10;33.72
59194;BME280;44967;48.598;15.650;2023-04-28T10:14:49;98208.91;;;20.38;34.08
59194;BME280;44967;48.598;15.650;2023-04-28T10:17:18;98210.38;;;19.66;35.17
59194;BME280;44967;48.598;15.650;2023-04-28T10:19:45;98207.63;;;19.14;35.53
59194;BME280;44967;48.598;15.650;2023-04-28T10:25:11;98195.91;;;18.62;36.52
59194;BME280;44967;48.598;15.650;2023-04-28T10:27:45;98190.53;;;18.76;36.97
59194;BME280;44967;48.598;15.650;2023-04-28T10:30:13;98182.50;;;18.76;36.69
59194;BME280;44967;48.598;15.650;2023-04-28T10:32:39;98187.53;;;18.80;37.47
59194;BME280;44967;48.598;15.650;2023-04-28T10:38:14;98176.00;;;18.66;37.81
59194;BME280;44967;48.598;15.650;2023-04-28T10:40:51;98172.19;;;18.42;38.05
59194;BME280;44967;48.598;15.650;2023-04-28T10:48:22;98150.97;;;18.67;37.43
59194;BME280;44967;48.598;15.650;2023-04-28T10:56:38;98127.63;;;18.96;36.38
59194;BME280;44967;48.598;15.650;2023-04-28T10:59:24;98130.78;;;19.15;37.44
59194;BME280;44967;48.598;15.650;2023-04-28T11:01:50;98133.34;;;19.56;36.12
59194;BME280;44967;48.598;15.650;2023-04-28T11:04:16;98116.34;;;19.30;36.32
59194;BME280;44967;48.598;15.650;2023-04-28T11:06:43;98112.91;;;19.15;36.28
59194;BME280;44967;48.598;15.650;2023-04-28T11:16:50;98109.50;;;18.87;37.32
59194;BME280;44967;48.598;15.650;2023-04-28T11:19:24;98104.69;;;18.92;37.42
59194;BME280;44967;48.598;15.650;2023-04-28T11:21:51;98104.06;;;19.01;37.37
59194;BME280;44967;48.598;15.650;2023-04-28T11:24:18;98093.78;;;18.95;37.57
59194;BME280;44967;48.598;15.650;2023-04-28T11:26:44;98089.75;;;19.14;38.49
59194;BME280;44967;48.598;15.650;2023-04-28T11:29:10;98087.66;;;18.93;38.58
59194;BME280;44967;48.598;15.650;2023-04-28T11:31:37;98085.19;;;18.90;37.88
59194;BME280;44967;48.598;15.650;2023-04-28T11:34:04;98086.00;;;18.77;37.98
59194;BME280;44967;48.598;15.650;2023-04-28T11:36:32;98088.44;;;18.68;37.80
59194;BME280;44967;48.598;15.650;2023-04-28T11:39:09;98087.50;;;18.28;39.23
59194;BME280;44967;48.598;15.650;2023-04-28T11:41:37;98083.09;;;18.27;38.81
59194;BME280;44967;48.598;15.650;2023-04-28T11:44:15;98091.34;;;18.10;39.42
59194;BME280;44967;48.598;15.650;2023-04-28T11:46:52;98091.75;;;18.04;39.40
59194;BME280;44967;48.598;15.650;2023-04-28T11:49:22;98077.31;;;17.78;39.91
59194;BME280;44967;48.598;15.650;2023-04-28T11:51:53;98080.25;;;18.02;40.61
59194;BME280;44967;48.598;15.650;2023-04-28T11:54:25;98090.59;;;18.08;39.95
59194;BME280;44967;48.598;15.650;2023-04-28T11:56:52;98092.22;;;17.68;40.39
59194;BME280;44967;48.598;15.650;2023-04-28T11:59:26;98090.03;;;17.60;40.27
59194;BME280;44967;48.598;15.650;2023-04-28T12:01:54;98091.91;;;17.44;40.52
59194;BME280;44967;48.598;15.650;2023-04-28T12:04:32;98089.84;;;17.19;41.43
59194;BME280;44967;48.598;15.650;2023-04-28T12:09:36;98094.50;;;17.02;41.11
59194;BME280;44967;48.598;15.650;2023-04-28T12:12:04;98096.06;;;17.20;40.53
59194;BME280;44967;48.598;15.650;2023-04-28T12:14:31;98094.78;;;17.11;40.95
59194;BME280;44967;48.598;15.650;2023-04-28T12:17:00;98083.00;;;16.85;40.59
59194;BME280;44967;48.598;15.650;2023-04-28T12:19:26;98078.16;;;16.92;41.37
59194;BME280;44967;48.598;15.650;2023-04-28T12:22:03;98079.53;;;16.69;40.73
59194;BME280;44967;48.598;15.650;2023-04-28T12:24:29;98079.97;;;16.91;41.61
59194;BME280;44967;48.598;15.650;2023-04-28T12:27:18;98092.19;;;16.95;40.68
59194;BME280;44967;48.598;15.650;2023-04-28T12:29:46;98095.38;;;17.02;40.29
59194;BME280;44967;48.598;15.650;2023-04-28T12:32:13;98088.59;;;16.81;40.84
59194;BME280;44967;48.598;15.650;2023-04-28T12:34:40;98089.28;;;16.84;41.34
59194;BME280;44967;48.598;15.650;2023-04-28T12:37:06;98087.34;;;16.72;41.75
59194;BME280;44967;48.598;15.650;2023-04-28T12:39:35;98096.88;;;16.76;41.98
59194;BME280;44967;48.598;15.650;2023-04-28T12:42:03;98092.94;;;16.52;42.00
59194;BME280;44967;48.598;15.650;2023-04-28T12:44:36;98091.38;;;16.48;42.01
59194;BME280;44967;48.598;15.650;2023-04-28T12:47:06;98092.63;;;16.42;42.45
59194;BME280;44967;48.598;15.650;2023-04-28T12:49:33;98090.19;;;16.54;42.53
59194;BME280;44967;48.598;15.650;2023-04-28T12:51:59;98096.84;;;16.62;43.17
59194;BME280;44967;48.598;15.650;2023-04-28T12:54:25;98082.63;;;16.62;43.37
59194;BME280;44967;48.598;15.650;2023-04-28T12:56:51;98087.78;;;16.49;43.93
59194;BME280;44967;48.598;15.650;2023-04-28T12:59:19;98080.72;;;16.48;43.76
59194;BME280;44967;48.598;15.650;2023-04-28T13:01:46;98083.38;;;16.48;44.35
59194;BME280;44967;48.598;15.650;2023-04-28T13:04:11;98088.97;;;16.43;45.28
59194;BME280;44967;48.598;15.650;2023-04-28T13:06:38;98096.38;;;16.54;43.72
59194;BME280;44967;48.598;15.650;2023-04-28T13:09:05;98092.50;;;16.44;45.18
59194;BME280;44967;48.598;15.650;2023-04-28T13:11:31;98087.78;;;16.49;45.37
59194;BME280;44967;48.598;15.650;2023-04-28T13:13:57;98090.03;;;16.57;46.95
59194;BME280;44967;48.598;15.650;2023-04-28T13:16:22;98091.22;;;16.51;46.07
59194;BME280;44967;48.598;15.650;2023-04-28T13:18:54;98086.41;;;16.42;47.27
59194;BME280;44967;48.598;15.650;2023-04-28T13:21:21;98079.44;;;16.24;48.91